Time;durP1;ratioP1;P1;durP2;ratioP2;P2;SDS_P1;SDS_P2;PMS_P1;PMS_P2;Temp;Humidity;BMP_temperature;BMP_pressure;BME280_temperature;BME280_humidity;BME280_pressure;Samples;Min_cycle;Max_cycle;Signal;HPM_P1;HPM_P2
2023/12/08 00:01:15;;;;;;;6.35;5.05;;;5.20;99.90;;;;;;5116749;28;20703;-68
2023/12/08 00:03:42;;;;;;;6.43;4.85;;;5.30;99.90;;;;;;5116962;28;20257;-67
2023/12/08 00:06:08;;;;;;;5.93;4.90;;;5.40;99.90;;;;;;5116969;28;20211;-68
2023/12/08 00:08:34;;;;;;;6.43;5.07;;;5.30;99.90;;;;;;5116639;28;20175;-68
2023/12/08 00:11:00;;;;;;;6.32;5.13;;;5.40;99.90;;;;;;5117180;28;20179;-68
2023/12/08 00:13:26;;;;;;;5.28;4.57;;;5.30;99.90;;;;;;5117112;28;20177;-68
2023/12/08 00:15:51;;;;;;;6.55;4.93;;;5.40;99.90;;;;;;5116744;28;20511;-68
2023/12/08 00:18:17;;;;;;;6.50;5.10;;;5.40;99.90;;;;;;5116715;28;20650;-67
2023/12/08 00:20:43;;;;;;;8.05;5.07;;;5.20;99.90;;;;;;5115474;28;20188;-68
2023/12/08 00:23:09;;;;;;;5.72;4.90;;;5.20;99.90;;;;;;5116106;28;20620;-68
2023/12/08 00:25:34;;;;;;;6.63;4.88;;;5.20;99.90;;;;;;5116517;28;20208;-69
2023/12/08 00:28:00;;;;;;;6.15;5.10;;;5.20;99.90;;;;;;5116536;28;20218;-69
2023/12/08 00:30:26;;;;;;;7.40;5.60;;;5.10;99.90;;;;;;5116587;28;20168;-69
2023/12/08 00:32:51;;;;;;;8.32;5.50;;;5.10;99.90;;;;;;5116414;28;20172;-69
2023/12/08 00:35:18;;;;;;;6.85;5.28;;;5.20;99.90;;;;;;5116654;28;20207;-68
2023/12/08 00:37:44;;;;;;;6.30;5.07;;;5.20;99.90;;;;;;5116040;28;20181;-69
2023/12/08 00:40:11;;;;;;;6.10;4.68;;;5.10;99.90;;;;;;5116366;28;20281;-68
2023/12/08 00:42:37;;;;;;;6.50;4.97;;;5.00;99.90;;;;;;5116234;28;20181;-69
2023/12/08 00:45:03;;;;;;;6.20;4.75;;;5.00;99.90;;;;;;5116095;28;20205;-69
2023/12/08 00:47:29;;;;;;;6.55;4.95;;;5.00;99.90;;;;;;5116113;28;20184;-68
2023/12/08 00:49:54;;;;;;;7.32;4.82;;;5.00;99.90;;;;;;5115738;28;20267;-69
2023/12/08 00:52:20;;;;;;;5.13;4.60;;;5.00;99.90;;;;;;5116588;28;20187;-69
2023/12/08 00:54:47;;;;;;;6.35;5.15;;;4.90;99.90;;;;;;5115958;28;20191;-68
2023/12/08 00:57:13;;;;;;;8.27;5.40;;;4.80;99.90;;;;;;5116022;28;20225;-69
2023/12/08 00:59:38;;;;;;;7.25;5.45;;;4.90;99.90;;;;;;5115929;28;20259;-68
2023/12/08 01:02:04;;;;;;;7.22;5.13;;;5.00;99.90;;;;;;5115615;28;20234;-69
2023/12/08 01:04:29;;;;;;;7.85;5.28;;;5.00;99.90;;;;;;5115741;28;20207;-68
2023/12/08 01:06:55;;;;;;;7.07;5.32;;;5.00;99.90;;;;;;5115797;28;20177;-68
2023/12/08 01:09:21;;;;;;;7.82;5.35;;;5.10;99.90;;;;;;5115714;28;20179;-69
2023/12/08 01:11:46;;;;;;;9.88;5.93;;;5.10;99.90;;;;;;5115428;28;20208;-69
2023/12/08 01:14:12;;;;;;;7.22;5.47;;;5.00;99.90;;;;;;5115708;28;20627;-68
2023/12/08 01:16:41;;;;;;;6.45;5.22;;;5.10;99.90;;;;;;5115623;28;20629;-69
2023/12/08 01:19:08;;;;;;;6.90;5.15;;;5.10;99.90;;;;;;5115769;28;20724;-68
2023/12/08 01:21:37;;;;;;;7.53;5.15;;;5.10;99.90;;;;;;5115211;28;20315;-69
2023/12/08 01:24:03;;;;;;;7.07;5.50;;;5.10;99.90;;;;;;5115399;28;20200;-69
2023/12/08 01:26:29;;;;;;;7.53;5.22;;;5.10;99.90;;;;;;5115404;28;20188;-68
2023/12/08 01:28:55;;;;;;;6.43;4.85;;;5.20;99.90;;;;;;5115354;28;20172;-68
2023/12/08 01:31:21;;;;;;;8.77;5.72;;;5.10;99.90;;;;;;5115181;28;20166;-69
2023/12/08 01:33:47;;;;;;;6.22;5.55;;;5.10;99.90;;;;;;5115283;28;20174;-69
2023/12/08 01:36:13;;;;;;;6.85;5.47;;;5.10;99.90;;;;;;5115252;28;20214;-69
2023/12/08 01:38:45;;;;;;;6.20;5.30;;;5.10;99.90;;;;;;5115165;28;20168;-69
2023/12/08 01:41:15;;;;;;;8.63;5.32;;;5.10;99.90;;;;;;5115348;28;20283;-69
2023/12/08 01:43:42;;;;;;;7.03;5.32;;;5.10;99.90;;;;;;5114924;28;20173;-68
2023/12/08 01:46:09;;;;;;;8.02;5.57;;;5.00;99.90;;;;;;5114718;28;20169;-69
2023/12/08 01:48:34;;;;;;;6.43;5.00;;;5.00;99.90;;;;;;5114977;28;20533;-68
2023/12/08 01:51:03;;;;;;;7.88;5.53;;;5.10;99.90;;;;;;5115044;28;20180;-68
2023/12/08 01:53:29;;;;;;;7.30;4.97;;;5.10;99.90;;;;;;5115149;28;20168;-65
2023/12/08 01:55:54;;;;;;;8.70;5.28;;;5.10;99.90;;;;;;5114549;28;20176;-68
2023/12/08 01:58:21;;;;;;;6.60;5.53;;;5.10;99.90;;;;;;5114813;28;20226;-68
2023/12/08 02:00:48;;;;;;;7.72;5.20;;;5.10;99.90;;;;;;5114783;28;20199;-68
2023/12/08 02:03:14;;;;;;;6.57;5.45;;;5.20;99.90;;;;;;5114551;28;20630;-68
2023/12/08 02:05:47;;;;;;;7.43;5.82;;;5.20;99.90;;;;;;5114588;28;20207;-66
2023/12/08 02:08:13;;;;;;;6.82;5.53;;;5.20;99.90;;;;;;5114802;28;20169;-68
2023/12/08 02:10:39;;;;;;;7.75;5.70;;;5.20;99.90;;;;;;5114577;28;20177;-68
2023/12/08 02:13:05;;;;;;;7.97;5.68;;;5.20;99.90;;;;;;5114532;28;20182;-66
2023/12/08 02:15:30;;;;;;;8.18;6.07;;;5.20;99.90;;;;;;5114542;28;20647;-68
2023/12/08 02:17:57;;;;;;;8.30;5.40;;;5.20;99.90;;;;;;5114743;28;20181;-68
2023/12/08 02:20:22;;;;;;;6.75;5.35;;;5.20;99.90;;;;;;5114416;28;20172;-68
2023/12/08 02:22:48;;;;;;;7.80;5.85;;;5.20;99.90;;;;;;5114577;28;20228;-68
2023/12/08 02:25:14;;;;;;;6.82;5.75;;;5.20;99.90;;;;;;5114251;28;20200;-69
2023/12/08 02:27:41;;;;;;;7.63;5.30;;;5.20;99.90;;;;;;5114067;28;20192;-68
2023/12/08 02:30:07;;;;;;;7.82;6.45;;;5.20;99.90;;;;;;5114275;28;20217;-68
2023/12/08 02:33:11;;;;;;;8.40;5.72;;;5.30;99.90;;;;;;5114226;28;20264;-68
2023/12/08 02:35:39;;;;;;;8.38;6.05;;;5.30;99.90;;;;;;5104404;28;20326;-68
2023/12/08 02:38:08;;;;;;;7.40;6.18;;;5.20;99.90;;;;;;5114069;28;20192;-68
2023/12/08 02:40:35;;;;;;;7.65;6.25;;;5.30;99.90;;;;;;5114155;28;20166;-68
2023/12/08 02:43:02;;;;;;;8.02;6.20;;;5.30;99.90;;;;;;5113466;28;20172;-68
2023/12/08 02:45:28;;;;;;;11.07;6.72;;;5.20;99.90;;;;;;5114047;28;20249;-68
2023/12/08 02:47:53;;;;;;;7.47;6.57;;;5.20;99.90;;;;;;5114034;28;20189;-68
2023/12/08 02:50:19;;;;;;;8.77;6.25;;;5.30;99.90;;;;;;5113990;28;20176;-70
2023/12/08 02:52:45;;;;;;;8.80;6.75;;;5.30;99.90;;;;;;5113994;28;20264;-68
2023/12/08 02:55:10;;;;;;;8.50;6.47;;;5.30;99.90;;;;;;5113672;28;20188;-68
2023/12/08 02:57:36;;;;;;;8.80;7.13;;;5.30;99.90;;;;;;5113974;28;20175;-68
2023/12/08 03:00:02;;;;;;;7.38;6.50;;;5.40;99.90;;;;;;5113597;28;20176;-68
2023/12/08 03:02:28;;;;;;;10.35;6.43;;;5.20;99.90;;;;;;5113860;28;20642;-65
2023/12/08 03:04:54;;;;;;;8.30;6.60;;;5.20;99.90;;;;;;5113718;28;20210;-68
2023/12/08 03:07:19;;;;;;;7.93;6.57;;;5.30;99.90;;;;;;5113770;28;20191;-68
2023/12/08 03:09:45;;;;;;;8.85;7.18;;;5.30;99.90;;;;;;5113526;28;20169;-68
2023/12/08 03:12:11;;;;;;;11.15;6.88;;;5.40;99.90;;;;;;5113822;28;20177;-68
2023/12/08 03:14:36;;;;;;;10.70;7.57;;;5.30;99.90;;;;;;5113801;28;20545;-69
2023/12/08 03:17:02;;;;;;;8.40;6.78;;;5.30;99.90;;;;;;5113783;28;20170;-68
2023/12/08 03:19:27;;;;;;;9.27;7.18;;;5.30;99.90;;;;;;5113689;28;20177;-68
2023/12/08 03:21:53;;;;;;;9.60;7.43;;;5.30;99.90;;;;;;5113924;28;20243;-67
2023/12/08 03:24:19;;;;;;;9.32;7.40;;;5.40;99.90;;;;;;5113655;28;20204;-68
2023/12/08 03:26:45;;;;;;;8.63;7.13;;;5.40;99.90;;;;;;5113699;28;20180;-68
2023/12/08 03:29:11;;;;;;;9.90;7.68;;;5.40;99.90;;;;;;5113938;28;20177;-68
2023/12/08 03:31:37;;;;;;;10.15;8.02;;;5.40;99.90;;;;;;5113650;28;20303;-68
2023/12/08 03:34:03;;;;;;;9.73;7.50;;;5.40;99.90;;;;;;5113847;28;20688;-68
2023/12/08 03:36:28;;;;;;;8.30;6.88;;;5.40;99.90;;;;;;5113527;28;20177;-67
2023/12/08 03:38:54;;;;;;;10.75;7.97;;;5.40;99.90;;;;;;5113555;28;20534;-68
2023/12/08 03:41:20;;;;;;;11.05;8.07;;;5.40;99.90;;;;;;5113626;28;20180;-68
2023/12/08 03:43:45;;;;;;;9.77;7.97;;;5.40;99.90;;;;;;5113361;28;20176;-68
2023/12/08 03:46:11;;;;;;;9.23;8.00;;;5.40;99.90;;;;;;5113518;28;20173;-68
2023/12/08 03:48:37;;;;;;;12.65;8.25;;;5.40;99.90;;;;;;5113452;28;20180;-69
2023/12/08 03:51:06;;;;;;;11.98;8.80;;;5.40;99.90;;;;;;5113435;28;20179;-68
2023/12/08 03:53:33;;;;;;;11.77;8.25;;;5.40;99.90;;;;;;5113438;28;20281;-68
2023/12/08 03:55:58;;;;;;;12.30;8.15;;;5.40;99.90;;;;;;5116685;28;20176;-68
2023/12/08 03:58:26;;;;;;;13.15;8.13;;;5.50;99.90;;;;;;5117139;28;20175;-68
2023/12/08 04:00:51;;;;;;;12.07;8.30;;;5.50;99.90;;;;;;5117040;28;20226;-68
2023/12/08 04:03:17;;;;;;;11.57;8.38;;;5.50;99.90;;;;;;5117039;28;20189;-68
2023/12/08 04:05:43;;;;;;;11.20;8.82;;;5.40;99.90;;;;;;5116625;28;20212;-68
2023/12/08 04:08:08;;;;;;;14.13;8.93;;;5.40;99.90;;;;;;5117041;28;20191;-68
2023/12/08 04:10:34;;;;;;;12.02;8.68;;;5.40;99.90;;;;;;5116916;28;20188;-68
2023/12/08 04:13:00;;;;;;;10.30;8.45;;;5.50;99.90;;;;;;5116923;28;20196;-69
2023/12/08 04:15:25;;;;;;;15.73;9.45;;;5.50;99.90;;;;;;5116830;28;20176;-68
2023/12/08 04:17:51;;;;;;;12.27;8.70;;;5.60;99.90;;;;;;5117126;28;20176;-68
2023/12/08 04:20:18;;;;;;;15.27;8.95;;;5.50;99.90;;;;;;5116435;28;20672;-68
2023/12/08 04:22:44;;;;;;;12.25;8.77;;;5.60;99.90;;;;;;5116708;28;20281;-70
2023/12/08 04:25:11;;;;;;;11.85;8.70;;;5.60;99.90;;;;;;5116279;28;20227;-68
2023/12/08 04:27:36;;;;;;;12.93;9.45;;;5.60;99.90;;;;;;5116776;28;20176;-69
2023/12/08 04:30:02;;;;;;;17.23;9.63;;;5.60;99.90;;;;;;5116545;28;20177;-68
2023/12/08 04:32:28;;;;;;;13.32;9.05;;;5.70;99.90;;;;;;5116492;28;20173;-68
2023/12/08 04:34:53;;;;;;;12.38;9.43;;;5.70;99.90;;;;;;5116395;28;20178;-68
2023/12/08 04:37:19;;;;;;;16.77;9.70;;;5.70;99.90;;;;;;5116423;28;20170;-68
2023/12/08 04:39:45;;;;;;;12.98;9.27;;;5.60;99.90;;;;;;5116332;28;20258;-69
2023/12/08 04:42:10;;;;;;;14.75;10.43;;;5.60;99.90;;;;;;5116320;28;20222;-68
2023/12/08 04:44:36;;;;;;;15.68;10.45;;;5.60;99.90;;;;;;5116091;28;20283;-68
2023/12/08 04:47:02;;;;;;;16.88;11.38;;;5.70;99.90;;;;;;5116363;28;20255;-68
2023/12/08 04:49:28;;;;;;;18.23;10.10;;;5.70;99.90;;;;;;5115812;28;20541;-68
2023/12/08 04:51:54;;;;;;;18.80;10.40;;;5.60;99.90;;;;;;5116074;28;20177;-67
2023/12/08 04:54:19;;;;;;;18.23;11.02;;;5.70;99.90;;;;;;5116053;28;20280;-69
2023/12/08 04:56:45;;;;;;;16.77;10.05;;;5.60;99.90;;;;;;5114732;28;20507;-69
2023/12/08 04:59:10;;;;;;;15.45;10.57;;;5.70;99.90;;;;;;5115978;28;20173;-67
2023/12/08 05:01:36;;;;;;;19.33;10.43;;;5.70;99.90;;;;;;5115972;28;20625;-68
2023/12/08 05:04:05;;;;;;;22.50;12.32;;;5.70;99.90;;;;;;5115918;28;20227;-67
2023/12/08 05:06:30;;;;;;;18.15;11.35;;;5.70;99.90;;;;;;5115138;28;20177;-67
2023/12/08 05:08:56;;;;;;;21.05;12.25;;;5.70;99.90;;;;;;5115795;28;20173;-67
2023/12/08 05:11:22;;;;;;;22.67;13.05;;;5.70;99.90;;;;;;5115765;28;20168;-67
2023/12/08 05:13:48;;;;;;;19.75;11.18;;;5.80;99.90;;;;;;5115718;28;20173;-67
2023/12/08 05:16:15;;;;;;;20.55;12.27;;;5.80;99.90;;;;;;5115599;28;20169;-67
2023/12/08 05:18:41;;;;;;;17.35;12.30;;;5.80;99.90;;;;;;5115315;28;20511;-66
2023/12/08 05:21:07;;;;;;;24.23;12.55;;;5.90;99.90;;;;;;5115265;28;20236;-67
2023/12/08 05:23:33;;;;;;;24.50;12.45;;;5.90;99.90;;;;;;5115490;28;20177;-67
2023/12/08 05:25:59;;;;;;;23.77;13.40;;;5.90;99.90;;;;;;5115364;28;20303;-67
2023/12/08 05:28:25;;;;;;;25.83;12.70;;;5.80;99.90;;;;;;5115135;28;20177;-67
2023/12/08 05:30:53;;;;;;;20.98;13.35;;;5.90;99.90;;;;;;5115299;28;20176;-67
2023/12/08 05:33:18;;;;;;;27.75;14.05;;;5.90;99.90;;;;;;5114991;28;20679;-67
2023/12/08 05:35:44;;;;;;;23.58;13.00;;;5.80;99.90;;;;;;5115233;28;20184;-67
2023/12/08 05:38:10;;;;;;;23.40;12.02;;;5.80;99.90;;;;;;5114923;28;20195;-67
2023/12/08 05:40:36;;;;;;;26.70;12.57;;;5.90;99.90;;;;;;5115155;28;20179;-67
2023/12/08 05:43:02;;;;;;;24.67;12.07;;;5.90;99.90;;;;;;5115042;28;20615;-67
2023/12/08 05:45:28;;;;;;;21.35;12.82;;;6.00;99.90;;;;;;5114818;27;20233;-67
2023/12/08 05:47:54;;;;;;;23.67;12.80;;;6.00;99.90;;;;;;5115307;28;20224;-67
2023/12/08 05:50:19;;;;;;;27.85;13.80;;;6.00;99.90;;;;;;5114922;28;20225;-66
2023/12/08 05:52:45;;;;;;;24.45;13.10;;;6.00;99.90;;;;;;5114645;28;20516;-67
2023/12/08 05:55:11;;;;;;;27.27;13.50;;;6.00;99.90;;;;;;5114887;28;20610;-67
2023/12/08 05:57:36;;;;;;;27.80;13.80;;;6.00;99.90;;;;;;5114794;28;20264;-68
2023/12/08 06:00:06;;;;;;;26.85;13.65;;;6.10;99.90;;;;;;5114843;28;20600;-61
2023/12/08 06:02:32;;;;;;;29.45;13.55;;;6.20;99.90;;;;;;5114566;28;20172;-61
2023/12/08 06:04:57;;;;;;;26.35;13.82;;;6.20;99.90;;;;;;5114428;28;20258;-61
2023/12/08 06:07:24;;;;;;;26.63;13.73;;;6.20;99.90;;;;;;5114519;28;20184;-61
2023/12/08 06:09:50;;;;;;;26.90;13.93;;;6.20;99.90;;;;;;5114659;28;20290;-62
2023/12/08 06:12:17;;;;;;;27.58;12.90;;;6.30;99.90;;;;;;5114610;28;20625;-62
2023/12/08 06:14:42;;;;;;;25.80;12.70;;;6.30;99.90;;;;;;5114496;28;20181;-61
2023/12/08 06:17:08;;;;;;;25.10;13.00;;;6.20;99.90;;;;;;5114101;28;20176;-61
2023/12/08 06:19:33;;;;;;;31.23;14.38;;;6.20;99.90;;;;;;5114031;28;20637;-62
2023/12/08 06:21:59;;;;;;;24.73;13.35;;;6.40;99.90;;;;;;5114343;28;20310;-62
2023/12/08 06:24:25;;;;;;;23.27;13.45;;;6.40;99.90;;;;;;5114274;28;20238;-61
2023/12/08 06:26:50;;;;;;;27.05;13.70;;;6.40;99.90;;;;;;5114371;28;20540;-62
2023/12/08 06:29:17;;;;;;;28.95;13.95;;;6.40;99.90;;;;;;5114324;28;20174;-61
2023/12/08 06:31:46;;;;;;;28.98;15.10;;;6.40;99.90;;;;;;5114190;28;20272;-61
2023/12/08 06:34:12;;;;;;;22.45;13.30;;;6.40;99.90;;;;;;5113017;28;20537;-61
2023/12/08 06:36:45;;;;;;;33.90;16.20;;;6.40;99.90;;;;;;5114055;28;20169;-61
2023/12/08 06:39:12;;;;;;;40.33;18.25;;;6.50;99.90;;;;;;5114154;28;20181;-61
2023/12/08 06:41:38;;;;;;;32.65;15.73;;;6.50;99.90;;;;;;5114127;28;20180;-62
2023/12/08 06:44:04;;;;;;;26.25;14.68;;;6.50;99.90;;;;;;5114039;28;20638;-61
2023/12/08 06:46:29;;;;;;;29.17;15.07;;;6.50;99.90;;;;;;5113806;28;20173;-61
2023/12/08 06:48:55;;;;;;;29.42;15.50;;;6.50;99.90;;;;;;5113731;28;20177;-61
2023/12/08 06:51:21;;;;;;;37.22;15.77;;;6.50;99.90;;;;;;5113993;28;20176;-61
2023/12/08 06:53:46;;;;;;;34.72;17.10;;;6.50;99.90;;;;;;5113939;28;20172;-61
2023/12/08 06:56:12;;;;;;;38.17;17.77;;;6.50;99.90;;;;;;5114025;28;20533;-61
2023/12/08 06:58:38;;;;;;;31.20;15.45;;;6.60;99.90;;;;;;5113949;28;20180;-62
2023/12/08 07:01:04;;;;;;;33.28;16.65;;;6.50;99.90;;;;;;5114155;28;20177;-61
2023/12/08 07:03:29;;;;;;;32.65;16.40;;;6.50;99.90;;;;;;5114291;28;20169;-61
2023/12/08 07:05:55;;;;;;;35.08;16.95;;;6.60;99.90;;;;;;5113788;28;20657;-61
2023/12/08 07:08:21;;;;;;;35.90;17.02;;;6.80;99.90;;;;;;5113922;28;20508;-61
2023/12/08 07:10:46;;;;;;;39.83;16.15;;;6.70;99.90;;;;;;5113804;28;20626;-61
2023/12/08 07:13:12;;;;;;;35.13;16.30;;;6.80;99.90;;;;;;5113615;28;20176;-61
2023/12/08 07:15:38;;;;;;;37.60;17.55;;;6.80;99.90;;;;;;5113747;28;20219;-61
2023/12/08 07:18:04;;;;;;;38.65;16.23;;;6.80;99.90;;;;;;5113748;28;20170;-62
2023/12/08 07:20:30;;;;;;;37.30;16.50;;;6.80;99.90;;;;;;5113686;28;20179;-61
2023/12/08 07:22:55;;;;;;;33.05;15.85;;;6.80;99.90;;;;;;5113250;28;20720;-61
2023/12/08 07:25:21;;;;;;;40.13;19.83;;;6.90;99.90;;;;;;5113540;28;20553;-61
2023/12/08 07:27:47;;;;;;;35.00;17.42;;;6.70;99.90;;;;;;5113668;28;20185;-61
2023/12/08 07:30:13;;;;;;;42.05;18.88;;;6.80;99.90;;;;;;5115903;28;20188;-62
2023/12/08 07:32:38;;;;;;;39.97;17.52;;;6.90;99.90;;;;;;5117694;28;20569;-62
2023/12/08 07:35:06;;;;;;;39.00;17.58;;;6.80;99.90;;;;;;5116406;28;20185;-60
2023/12/08 07:37:31;;;;;;;35.20;17.38;;;6.80;99.90;;;;;;5117298;28;20196;-61
2023/12/08 07:39:57;;;;;;;45.83;18.35;;;6.90;99.90;;;;;;5117944;28;20631;-63
2023/12/08 07:42:23;;;;;;;43.90;17.70;;;7.00;99.90;;;;;;5117489;28;20177;-61
2023/12/08 07:44:48;;;;;;;43.58;17.70;;;7.00;99.90;;;;;;5117344;28;20239;-61
2023/12/08 07:47:14;;;;;;;41.63;17.20;;;7.10;99.90;;;;;;5117386;28;20537;-61
2023/12/08 07:49:40;;;;;;;48.25;17.98;;;7.00;99.90;;;;;;5117356;28;20259;-61
2023/12/08 07:52:05;;;;;;;55.80;21.52;;;7.10;99.90;;;;;;5117308;28;20165;-61
2023/12/08 07:54:32;;;;;;;46.35;17.80;;;7.10;99.90;;;;;;5117221;28;20238;-61
2023/12/08 07:57:00;;;;;;;48.10;18.58;;;7.10;99.90;;;;;;5117190;28;20514;-61
2023/12/08 07:59:26;;;;;;;45.00;19.08;;;7.10;99.90;;;;;;5117243;28;20165;-62
2023/12/08 08:01:51;;;;;;;36.40;17.55;;;7.20;99.90;;;;;;5117110;28;20180;-61
2023/12/08 08:04:17;;;;;;;42.60;18.33;;;7.10;99.90;;;;;;5116959;28;20212;-61
2023/12/08 08:06:43;;;;;;;40.53;18.10;;;7.20;99.90;;;;;;5117166;28;20251;-61
2023/12/08 08:09:08;;;;;;;57.42;19.58;;;7.10;99.90;;;;;;5117007;28;20265;-61
2023/12/08 08:11:34;;;;;;;54.63;19.55;;;7.20;99.90;;;;;;5116950;28;20172;-62
2023/12/08 08:14:00;;;;;;;47.53;17.88;;;7.30;99.90;;;;;;5116614;28;20665;-61
2023/12/08 08:16:25;;;;;;;49.72;19.77;;;7.30;99.90;;;;;;5116832;28;20180;-61
2023/12/08 08:18:51;;;;;;;46.15;18.42;;;7.30;99.90;;;;;;5116792;28;20256;-61
2023/12/08 08:21:17;;;;;;;56.65;19.80;;;7.20;99.90;;;;;;5116624;28;20274;-60
2023/12/08 08:23:43;;;;;;;50.00;19.52;;;7.30;99.90;;;;;;5116781;28;20195;-61
2023/12/08 08:26:08;;;;;;;53.67;20.38;;;7.40;99.90;;;;;;5116217;28;20263;-61
2023/12/08 08:28:35;;;;;;;52.20;22.20;;;7.40;99.90;;;;;;5116635;28;20183;-61
2023/12/08 08:31:01;;;;;;;57.42;22.83;;;7.50;99.90;;;;;;5116215;28;20553;-61
2023/12/08 08:33:26;;;;;;;48.78;20.02;;;7.40;99.90;;;;;;5116543;28;20170;-62
2023/12/08 08:35:52;;;;;;;56.78;21.13;;;7.50;99.90;;;;;;5116340;28;20226;-60
2023/12/08 08:38:18;;;;;;;60.25;21.77;;;7.50;99.90;;;;;;5116375;28;20173;-61
2023/12/08 08:40:43;;;;;;;52.97;21.27;;;7.60;99.90;;;;;;5115549;28;20176;-61
2023/12/08 08:43:09;;;;;;;57.28;20.95;;;7.50;99.90;;;;;;5116316;28;20235;-61
2023/12/08 08:45:35;;;;;;;54.20;20.80;;;7.50;99.90;;;;;;5116222;28;20242;-61
2023/12/08 08:48:01;;;;;;;53.70;22.80;;;7.50;99.90;;;;;;5116208;28;20196;-61
2023/12/08 08:50:27;;;;;;;61.03;22.75;;;7.50;99.90;;;;;;5116172;28;20246;-61
2023/12/08 08:52:53;;;;;;;58.03;24.25;;;7.50;99.90;;;;;;5116054;28;20264;-61
2023/12/08 08:55:18;;;;;;;50.20;22.65;;;7.60;99.90;;;;;;5116371;28;20204;-61
2023/12/08 08:57:44;;;;;;;56.47;22.65;;;7.60;99.90;;;;;;5115969;28;20178;-61
2023/12/08 09:00:12;;;;;;;72.05;23.50;;;7.70;99.90;;;;;;5115927;28;20169;-61
2023/12/08 09:02:38;;;;;;;70.18;22.70;;;7.70;99.90;;;;;;5115900;27;20188;-61
2023/12/08 09:05:05;;;;;;;63.40;22.05;;;7.70;99.90;;;;;;5115729;28;20291;-61
2023/12/08 09:07:30;;;;;;;52.40;20.95;;;7.70;99.90;;;;;;5115896;28;20173;-61
2023/12/08 09:09:57;;;;;;;59.03;23.00;;;7.80;99.90;;;;;;5115762;28;20165;-61
2023/12/08 09:12:22;;;;;;;58.70;23.27;;;7.70;99.90;;;;;;5115728;28;20233;-61
2023/12/08 09:14:48;;;;;;;69.53;23.17;;;7.80;99.90;;;;;;5115656;28;20270;-61
2023/12/08 09:17:14;;;;;;;61.55;22.90;;;7.80;99.90;;;;;;5115680;28;20634;-61
2023/12/08 09:19:39;;;;;;;69.57;22.77;;;7.80;99.90;;;;;;5115331;28;20204;-61
2023/12/08 09:22:05;;;;;;;51.70;20.75;;;7.80;99.90;;;;;;5115309;28;20236;-61
2023/12/08 09:24:31;;;;;;;57.97;21.85;;;7.90;99.90;;;;;;5115395;28;20193;-61
2023/12/08 09:26:56;;;;;;;61.55;22.50;;;7.90;99.90;;;;;;5115140;28;20180;-61
2023/12/08 09:29:22;;;;;;;54.15;20.85;;;7.90;99.90;;;;;;5115437;28;20180;-61
2023/12/08 09:31:48;;;;;;;56.65;20.40;;;7.80;99.90;;;;;;5115462;28;20167;-61
2023/12/08 09:34:14;;;;;;;58.42;21.88;;;7.80;99.90;;;;;;5115330;28;20634;-61
2023/12/08 09:36:40;;;;;;;62.40;23.52;;;7.90;99.90;;;;;;5115203;28;20648;-60
2023/12/08 09:39:08;;;;;;;49.70;19.75;;;8.00;99.90;;;;;;5115246;28;20169;-61
2023/12/08 09:41:37;;;;;;;50.90;19.13;;;8.00;99.90;;;;;;5115179;28;20170;-61
2023/12/08 09:44:10;;;;;;;58.00;20.45;;;8.10;99.90;;;;;;5115089;27;20252;-61
2023/12/08 09:46:36;;;;;;;49.80;18.73;;;8.10;99.90;;;;;;5115131;28;20200;-61
2023/12/08 09:49:03;;;;;;;48.67;19.50;;;8.10;99.90;;;;;;5115120;28;20211;-61
2023/12/08 09:51:29;;;;;;;50.88;18.45;;;8.20;99.90;;;;;;5114869;28;20205;-61
2023/12/08 09:53:57;;;;;;;43.05;18.23;;;8.20;99.90;;;;;;5114798;28;20204;-62
2023/12/08 09:56:24;;;;;;;44.55;17.67;;;8.30;99.90;;;;;;5114865;28;20228;-61
2023/12/08 09:58:51;;;;;;;50.97;19.60;;;8.30;99.90;;;;;;5114828;28;20302;-61
2023/12/08 10:01:17;;;;;;;43.20;19.20;;;8.30;99.90;;;;;;5114777;28;20259;-61
2023/12/08 10:03:43;;;;;;;54.33;20.15;;;8.40;99.90;;;;;;5114763;28;20252;-61
2023/12/08 10:06:10;;;;;;;46.08;18.58;;;8.50;99.90;;;;;;5114337;28;20654;-61
2023/12/08 10:08:36;;;;;;;39.08;16.05;;;8.40;99.90;;;;;;5114671;28;20196;-61
2023/12/08 10:11:05;;;;;;;39.92;18.17;;;8.40;99.90;;;;;;5114596;28;20226;-61
2023/12/08 10:13:31;;;;;;;52.65;19.75;;;8.40;99.90;;;;;;5114610;28;20617;-61
2023/12/08 10:15:57;;;;;;;39.95;17.52;;;8.50;99.90;;;;;;5114548;28;20525;-61
2023/12/08 10:18:24;;;;;;;37.70;18.33;;;8.50;99.90;;;;;;5114506;28;20248;-61
2023/12/08 10:20:50;;;;;;;37.47;18.08;;;8.50;99.90;;;;;;5114207;28;20172;-62
2023/12/08 10:23:22;;;;;;;40.97;17.92;;;8.60;99.90;;;;;;5114443;28;20183;-61
2023/12/08 10:25:48;;;;;;;37.22;16.48;;;8.50;99.90;;;;;;5114277;28;20204;-61
2023/12/08 10:28:14;;;;;;;42.15;16.98;;;8.60;99.90;;;;;;5114381;28;20215;-62
2023/12/08 10:30:51;;;;;;;46.42;18.63;;;8.60;99.90;;;;;;5113971;28;20561;-60
2023/12/08 10:33:21;;;;;;;39.33;18.52;;;8.60;99.90;;;;;;5114310;28;20157;-61
2023/12/08 10:35:47;;;;;;;43.05;17.85;;;8.70;99.90;;;;;;5114246;28;20173;-61
2023/12/08 10:38:16;;;;;;;45.85;18.25;;;8.70;99.90;;;;;;5114158;28;20177;-61
2023/12/08 10:40:48;;;;;;;44.35;17.80;;;8.70;99.90;;;;;;5114097;28;20177;-61
2023/12/08 10:43:25;;;;;;;41.13;16.98;;;8.70;99.90;;;;;;5113849;28;20184;-61
2023/12/08 10:45:51;;;;;;;36.42;17.20;;;8.70;99.90;;;;;;5114040;28;20196;-61
2023/12/08 10:48:21;;;;;;;36.42;17.55;;;8.80;99.90;;;;;;5114007;28;20227;-60
2023/12/08 10:50:52;;;;;;;39.45;18.15;;;8.70;99.90;;;;;;5114035;28;20169;-61
2023/12/08 10:53:19;;;;;;;43.90;19.00;;;8.70;99.90;;;;;;5114037;28;20222;-61
2023/12/08 10:56:00;;;;;;;39.50;17.67;;;8.80;99.90;;;;;;5113981;28;20173;-61
2023/12/08 10:58:28;;;;;;;35.35;16.42;;;8.90;99.90;;;;;;5114038;28;20243;-61
2023/12/08 11:00:55;;;;;;;44.35;17.00;;;8.90;99.90;;;;;;5113863;28;20177;-61
2023/12/08 11:03:22;;;;;;;39.05;16.95;;;8.80;99.90;;;;;;5113853;28;20253;-61
2023/12/08 11:06:33;;;;;;;44.95;17.58;;;8.80;99.90;;;;;;5117513;28;20219;-61
2023/12/08 11:09:01;;;;;;;39.20;17.30;;;8.80;99.90;;;;;;5079787;28;20185;-61
2023/12/08 11:11:29;;;;;;;37.45;16.95;;;8.90;99.90;;;;;;5118066;28;20177;-61
2023/12/08 11:14:24;;;;;;;37.08;15.30;;;8.90;99.90;;;;;;5118051;28;20594;-61
2023/12/08 11:17:00;;;;;;;38.45;16.67;;;8.80;99.90;;;;;;5117791;28;20201;-61
2023/12/08 11:19:26;;;;;;;35.85;15.13;;;8.90;99.90;;;;;;5117955;28;20239;-61
2023/12/08 11:21:53;;;;;;;33.15;15.18;;;8.80;99.90;;;;;;5117807;28;20231;-61
2023/12/08 11:24:19;;;;;;;37.05;15.45;;;8.90;99.90;;;;;;5117729;28;20212;-61
2023/12/08 11:27:10;;;;;;;33.85;16.65;;;8.90;99.90;;;;;;5117780;28;20180;-61
2023/12/08 11:29:57;;;;;;;40.80;17.73;;;8.90;99.90;;;;;;5117819;28;20149;-61
2023/12/08 11:32:38;;;;;;;35.80;17.30;;;8.90;99.90;;;;;;5117482;28;20631;-61
2023/12/08 11:35:08;;;;;;;41.00;17.23;;;8.90;99.90;;;;;;5117386;28;20173;-61
2023/12/08 11:37:34;;;;;;;40.40;17.40;;;9.00;99.90;;;;;;5117677;28;20630;-61
2023/12/08 11:40:02;;;;;;;37.50;15.73;;;9.00;99.90;;;;;;5117575;28;20308;-61
2023/12/08 11:42:28;;;;;;;36.08;16.55;;;8.90;99.90;;;;;;5117500;28;20169;-61
2023/12/08 11:44:56;;;;;;;34.90;15.60;;;8.90;99.90;;;;;;5117326;28;20208;-61
2023/12/08 11:47:24;;;;;;;42.17;16.08;;;8.90;99.90;;;;;;5117451;28;20626;-61
2023/12/08 11:49:52;;;;;;;29.83;15.25;;;9.00;99.90;;;;;;5117414;28;20256;-61
2023/12/08 11:52:27;;;;;;;36.20;15.52;;;9.00;99.90;;;;;;5117246;28;20177;-61
2023/12/08 11:55:11;;;;;;;39.95;17.20;;;9.10;99.90;;;;;;5117248;28;20172;-60
2023/12/08 11:58:03;;;;;;;37.00;16.25;;;9.10;99.90;;;;;;5117303;28;20357;-61
2023/12/08 12:00:30;;;;;;;37.25;15.50;;;9.10;99.90;;;;;;5116732;28;20202;-60
2023/12/08 12:02:57;;;;;;;33.70;16.05;;;9.10;99.90;;;;;;5117152;28;20177;-61
2023/12/08 12:05:23;;;;;;;34.80;15.35;;;9.10;99.90;;;;;;5117071;28;20330;-61
2023/12/08 12:07:51;;;;;;;30.05;15.50;;;9.10;99.90;;;;;;5117039;28;20181;-61
2023/12/08 12:10:19;;;;;;;33.67;16.13;;;9.20;99.90;;;;;;5115678;28;20173;-61
2023/12/08 12:12:56;;;;;;;31.92;15.07;;;9.30;99.90;;;;;;5116961;28;20170;-60
2023/12/08 12:15:25;;;;;;;32.75;14.82;;;9.30;99.90;;;;;;5116905;28;20206;-60
2023/12/08 12:17:53;;;;;;;29.95;15.52;;;9.20;99.90;;;;;;5116796;28;20173;-61
2023/12/08 12:20:19;;;;;;;30.55;14.27;;;9.20;99.90;;;;;;5116797;28;20185;-60
2023/12/08 12:22:45;;;;;;;32.78;14.07;;;9.30;99.90;;;;;;5116772;28;20225;-61
2023/12/08 12:25:11;;;;;;;30.52;13.98;;;9.30;99.90;;;;;;5116750;28;20284;-61
2023/12/08 12:27:45;;;;;;;28.52;14.90;;;9.30;99.90;;;;;;5116606;28;20177;-61
2023/12/08 12:30:11;;;;;;;27.23;13.23;;;9.30;99.90;;;;;;5116619;28;20161;-60
2023/12/08 12:32:40;;;;;;;34.58;14.60;;;9.30;99.90;;;;;;5116598;28;20173;-60
2023/12/08 12:35:07;;;;;;;32.88;13.93;;;9.40;99.90;;;;;;5116485;28;20170;-61
2023/12/08 12:37:33;;;;;;;26.10;13.13;;;9.30;99.90;;;;;;5116532;28;20619;-60
2023/12/08 12:39:59;;;;;;;30.17;14.23;;;9.30;99.90;;;;;;5116407;28;20208;-61
2023/12/08 12:42:25;;;;;;;25.35;13.90;;;9.30;99.90;;;;;;5116431;28;20514;-61